sensor_id;sensor_type;location;lat;lon;timestamp;pressure;altitude;pressure_sealevel;temperature;humidity
72525;BME280;60547;48.502;8.996;2023-04-01T00:01:07;96668.94;;;8.05;88.19
72525;BME280;60547;48.502;8.996;2023-04-01T00:03:33;96669.41;;;8.04;88.62
72525;BME280;60547;48.502;8.996;2023-04-01T00:06:01;96667.09;;;8.02;88.54
72525;BME280;60547;48.502;8.996;2023-04-01T00:08:27;96672.81;;;8.08;88.00
72525;BME280;60547;48.502;8.996;2023-04-01T00:10:53;96664.25;;;8.15;88.16
72525;BME280;60547;48.502;8.996;2023-04-01T00:13:19;96667.16;;;8.12;88.39
72525;BME280;60547;48.502;8.996;2023-04-01T00:15:45;96659.88;;;8.05;87.91
72525;BME280;60547;48.502;8.996;2023-04-01T00:18:11;96652.00;;;8.03;87.39
72525;BME280;60547;48.502;8.996;2023-04-01T00:20:37;96664.13;;;7.97;87.47
72525;BME280;60547;48.502;8.996;2023-04-01T00:23:03;96659.91;;;7.92;87.93
72525;BME280;60547;48.502;8.996;2023-04-01T00:25:29;96659.34;;;7.97;88.36
72525;BME280;60547;48.502;8.996;2023-04-01T00:27:55;96667.34;;;7.95;88.86
72525;BME280;60547;48.502;8.996;2023-04-01T00:30:20;96648.25;;;7.97;87.77
72525;BME280;60547;48.502;8.996;2023-04-01T00:32:46;96650.66;;;8.08;86.98
72525;BME280;60547;48.502;8.996;2023-04-01T00:35:11;96657.53;;;8.03;87.32
72525;BME280;60547;48.502;8.996;2023-04-01T00:37:38;96655.56;;;8.04;87.32
72525;BME280;60547;48.502;8.996;2023-04-01T00:40:06;96664.00;;;8.00;87.06
72525;BME280;60547;48.502;8.996;2023-04-01T00:42:32;96665.66;;;7.98;86.44
72525;BME280;60547;48.502;8.996;2023-04-01T00:44:58;96653.16;;;7.93;87.17
72525;BME280;60547;48.502;8.996;2023-04-01T00:47:43;96650.63;;;7.86;86.44
72525;BME280;60547;48.502;8.996;2023-04-01T00:50:09;96653.41;;;7.86;86.79
72525;BME280;60547;48.502;8.996;2023-04-01T00:52:35;96657.03;;;7.96;86.52
72525;BME280;60547;48.502;8.996;2023-04-01T00:55:03;96652.75;;;7.82;86.31
72525;BME280;60547;48.502;8.996;2023-04-01T00:57:34;96652.06;;;7.91;86.68
72525;BME280;60547;48.502;8.996;2023-04-01T01:00:05;96648.00;;;7.83;87.57
72525;BME280;60547;48.502;8.996;2023-04-01T01:02:32;96652.75;;;7.82;87.10
72525;BME280;60547;48.502;8.996;2023-04-01T01:04:58;96650.75;;;7.83;87.38
72525;BME280;60547;48.502;8.996;2023-04-01T01:10:35;96655.41;;;7.86;85.26
72525;BME280;60547;48.502;8.996;2023-04-01T01:13:10;96664.97;;;7.72;86.72
72525;BME280;60547;48.502;8.996;2023-04-01T01:18:44;96652.59;;;7.64;85.31
72525;BME280;60547;48.502;8.996;2023-04-01T01:24:36;96656.34;;;7.70;85.15
72525;BME280;60547;48.502;8.996;2023-04-01T01:27:13;96657.69;;;7.65;85.26
72525;BME280;60547;48.502;8.996;2023-04-01T01:29:49;96656.69;;;7.72;86.06
72525;BME280;60547;48.502;8.996;2023-04-01T01:37:42;96657.78;;;7.74;85.91
72525;BME280;60547;48.502;8.996;2023-04-01T01:40:11;96659.31;;;7.75;85.53
72525;BME280;60547;48.502;8.996;2023-04-01T01:42:41;96660.91;;;7.64;84.27
72525;BME280;60547;48.502;8.996;2023-04-01T01:45:08;96664.91;;;7.63;83.98
72525;BME280;60547;48.502;8.996;2023-04-01T01:47:35;96658.38;;;7.57;85.26
72525;BME280;60547;48.502;8.996;2023-04-01T01:50:03;96655.38;;;7.64;84.21
72525;BME280;60547;48.502;8.996;2023-04-01T01:52:30;96663.69;;;7.64;84.92
72525;BME280;60547;48.502;8.996;2023-04-01T01:54:56;96659.38;;;7.63;84.64
72525;BME280;60547;48.502;8.996;2023-04-01T01:57:26;96627.63;;;7.55;84.37
72525;BME280;60547;48.502;8.996;2023-04-01T01:59:55;96655.25;;;7.67;85.01
72525;BME280;60547;48.502;8.996;2023-04-01T02:02:23;96654.34;;;7.70;85.05
72525;BME280;60547;48.502;8.996;2023-04-01T02:04:51;96662.53;;;7.74;84.15
72525;BME280;60547;48.502;8.996;2023-04-01T02:07:29;96662.66;;;7.70;84.35
72525;BME280;60547;48.502;8.996;2023-04-01T02:09:56;96673.81;;;7.80;84.37
72525;BME280;60547;48.502;8.996;2023-04-01T02:12:23;96672.78;;;7.86;84.15
72525;BME280;60547;48.502;8.996;2023-04-01T02:14:56;96665.63;;;7.76;84.57
72525;BME280;60547;48.502;8.996;2023-04-01T02:17:27;96669.19;;;7.76;85.69
72525;BME280;60547;48.502;8.996;2023-04-01T02:20:05;96673.53;;;7.65;85.39
72525;BME280;60547;48.502;8.996;2023-04-01T02:22:41;96669.47;;;7.57;85.04
72525;BME280;60547;48.502;8.996;2023-04-01T02:25:12;96667.34;;;7.61;85.04
72525;BME280;60547;48.502;8.996;2023-04-01T02:27:40;96673.56;;;7.52;84.62
72525;BME280;60547;48.502;8.996;2023-04-01T02:30:07;96675.44;;;7.55;84.98
72525;BME280;60547;48.502;8.996;2023-04-01T02:32:34;96673.00;;;7.57;85.26
72525;BME280;60547;48.502;8.996;2023-04-01T02:35:07;96681.19;;;7.61;85.44
72525;BME280;60547;48.502;8.996;2023-04-01T02:37:34;96679.44;;;7.54;86.00
72525;BME280;60547;48.502;8.996;2023-04-01T02:40:01;96686.19;;;7.53;85.40
72525;BME280;60547;48.502;8.996;2023-04-01T02:42:27;96680.22;;;7.42;86.82
72525;BME280;60547;48.502;8.996;2023-04-01T02:44:52;96671.47;;;7.43;86.82
72525;BME280;60547;48.502;8.996;2023-04-01T02:47:18;96665.50;;;7.45;86.43
72525;BME280;60547;48.502;8.996;2023-04-01T02:49:43;96666.19;;;7.36;86.11
72525;BME280;60547;48.502;8.996;2023-04-01T02:52:08;96670.81;;;7.39;85.73
72525;BME280;60547;48.502;8.996;2023-04-01T02:54:34;96663.50;;;7.45;85.43
72525;BME280;60547;48.502;8.996;2023-04-01T02:56:59;96660.84;;;7.42;85.82
72525;BME280;60547;48.502;8.996;2023-04-01T02:59:25;96644.59;;;7.44;85.19
72525;BME280;60547;48.502;8.996;2023-04-01T03:01:51;96659.44;;;7.37;84.92
72525;BME280;60547;48.502;8.996;2023-04-01T03:04:16;96659.25;;;7.19;84.99
72525;BME280;60547;48.502;8.996;2023-04-01T03:06:42;96660.78;;;7.20;84.46
72525;BME280;60547;48.502;8.996;2023-04-01T03:09:07;96654.25;;;7.14;83.91
72525;BME280;60547;48.502;8.996;2023-04-01T03:11:33;96659.78;;;7.14;84.55
72525;BME280;60547;48.502;8.996;2023-04-01T03:13:58;96660.91;;;7.04;84.82
72525;BME280;60547;48.502;8.996;2023-04-01T03:16:24;96669.00;;;6.98;84.51
72525;BME280;60547;48.502;8.996;2023-04-01T03:18:49;96670.09;;;7.01;84.11
72525;BME280;60547;48.502;8.996;2023-04-01T03:21:26;96681.72;;;6.96;84.70
72525;BME280;60547;48.502;8.996;2023-04-01T03:23:52;96665.91;;;6.96;84.74
72525;BME280;60547;48.502;8.996;2023-04-01T03:26:17;96659.38;;;7.03;85.35
72525;BME280;60547;48.502;8.996;2023-04-01T03:28:43;96653.16;;;6.99;85.04
72525;BME280;60547;48.502;8.996;2023-04-01T03:31:09;96665.34;;;7.01;84.23
72525;BME280;60547;48.502;8.996;2023-04-01T03:33:35;96665.22;;;6.92;84.29
72525;BME280;60547;48.502;8.996;2023-04-01T03:36:01;96663.91;;;6.97;84.51
72525;BME280;60547;48.502;8.996;2023-04-01T03:38:28;96674.53;;;6.98;84.49
72525;BME280;60547;48.502;8.996;2023-04-01T03:40:53;96670.53;;;6.99;83.91
72525;BME280;60547;48.502;8.996;2023-04-01T03:43:19;96667.56;;;6.94;84.57
72525;BME280;60547;48.502;8.996;2023-04-01T03:45:50;96673.31;;;6.87;84.48
72525;BME280;60547;48.502;8.996;2023-04-01T03:48:16;96669.53;;;6.93;84.22
72525;BME280;60547;48.502;8.996;2023-04-01T03:50:43;96668.31;;;6.94;84.78
72525;BME280;60547;48.502;8.996;2023-04-01T03:53:09;96663.13;;;6.84;85.50
72525;BME280;60547;48.502;8.996;2023-04-01T03:55:36;96663.56;;;6.95;85.28
72525;BME280;60547;48.502;8.996;2023-04-01T03:58:02;96654.72;;;7.00;84.61
72525;BME280;60547;48.502;8.996;2023-04-01T04:00:29;96664.00;;;6.93;85.44
72525;BME280;60547;48.502;8.996;2023-04-01T04:02:55;96656.50;;;6.94;85.70
72525;BME280;60547;48.502;8.996;2023-04-01T04:05:23;96656.38;;;6.97;86.37
72525;BME280;60547;48.502;8.996;2023-04-01T04:07:48;96641.22;;;7.02;86.13
72525;BME280;60547;48.502;8.996;2023-04-01T04:10:14;96633.25;;;7.04;85.70
72525;BME280;60547;48.502;8.996;2023-04-01T04:12:39;96640.00;;;7.03;85.16
72525;BME280;60547;48.502;8.996;2023-04-01T04:15:07;96644.00;;;7.02;85.47
72525;BME280;60547;48.502;8.996;2023-04-01T04:17:33;96633.25;;;7.04;85.43
72525;BME280;60547;48.502;8.996;2023-04-01T04:19:58;96629.72;;;7.03;85.68
72525;BME280;60547;48.502;8.996;2023-04-01T04:22:24;96627.97;;;6.97;85.80
72525;BME280;60547;48.502;8.996;2023-04-01T04:24:49;96638.13;;;7.00;85.37
72525;BME280;60547;48.502;8.996;2023-04-01T04:27:15;96637.03;;;6.97;85.70
72525;BME280;60547;48.502;8.996;2023-04-01T04:29:40;96639.22;;;7.02;85.28
72525;BME280;60547;48.502;8.996;2023-04-01T04:32:06;96637.47;;;6.96;85.44
72525;BME280;60547;48.502;8.996;2023-04-01T04:34:32;96633.06;;;6.86;86.08
72525;BME280;60547;48.502;8.996;2023-04-01T04:36:57;96636.47;;;6.90;86.75
72525;BME280;60547;48.502;8.996;2023-04-01T04:39:23;96633.38;;;6.88;86.47
72525;BME280;60547;48.502;8.996;2023-04-01T04:41:49;96640.22;;;6.96;86.44
72525;BME280;60547;48.502;8.996;2023-04-01T04:44:14;96633.47;;;6.97;85.88
72525;BME280;60547;48.502;8.996;2023-04-01T04:46:40;96649.53;;;6.89;86.68
72525;BME280;60547;48.502;8.996;2023-04-01T04:49:06;96651.63;;;6.85;86.87
72525;BME280;60547;48.502;8.996;2023-04-01T04:51:32;96641.78;;;6.71;87.54
72525;BME280;60547;48.502;8.996;2023-04-01T04:54:04;96644.78;;;6.77;87.22
72525;BME280;60547;48.502;8.996;2023-04-01T04:56:31;96651.75;;;6.82;87.79
72525;BME280;60547;48.502;8.996;2023-04-01T04:58:57;96651.19;;;6.87;87.40
72525;BME280;60547;48.502;8.996;2023-04-01T05:01:23;96656.16;;;6.92;86.47
72525;BME280;60547;48.502;8.996;2023-04-01T05:03:49;96640.00;;;6.90;86.16
72525;BME280;60547;48.502;8.996;2023-04-01T05:06:16;96652.19;;;6.93;86.46
72525;BME280;60547;48.502;8.996;2023-04-01T05:08:42;96641.00;;;6.84;86.81
72525;BME280;60547;48.502;8.996;2023-04-01T05:11:14;96642.78;;;7.03;86.06
72525;BME280;60547;48.502;8.996;2023-04-01T05:13:41;96645.22;;;7.01;86.46
72525;BME280;60547;48.502;8.996;2023-04-01T05:16:12;96652.63;;;7.04;85.92
72525;BME280;60547;48.502;8.996;2023-04-01T05:18:38;96644.97;;;7.08;85.02
72525;BME280;60547;48.502;8.996;2023-04-01T05:21:03;96637.00;;;7.10;85.19
72525;BME280;60547;48.502;8.996;2023-04-01T05:23:30;96634.47;;;7.16;85.28
72525;BME280;60547;48.502;8.996;2023-04-01T05:25:56;96637.88;;;7.20;85.24
72525;BME280;60547;48.502;8.996;2023-04-01T05:28:22;96634.00;;;7.17;83.45
72525;BME280;60547;48.502;8.996;2023-04-01T05:30:48;96634.22;;;7.23;83.62
72525;BME280;60547;48.502;8.996;2023-04-01T05:33:13;96636.53;;;7.24;83.37
72525;BME280;60547;48.502;8.996;2023-04-01T05:35:40;96632.88;;;7.27;82.84
72525;BME280;60547;48.502;8.996;2023-04-01T05:38:06;96645.81;;;7.30;83.07
72525;BME280;60547;48.502;8.996;2023-04-01T05:40:32;96639.63;;;7.26;83.42
72525;BME280;60547;48.502;8.996;2023-04-01T05:42:58;96631.88;;;7.34;83.48
72525;BME280;60547;48.502;8.996;2023-04-01T05:45:24;96630.78;;;7.31;83.16
72525;BME280;60547;48.502;8.996;2023-04-01T05:47:50;96628.75;;;7.44;82.40
72525;BME280;60547;48.502;8.996;2023-04-01T05:50:15;96629.53;;;7.45;83.09
72525;BME280;60547;48.502;8.996;2023-04-01T05:52:41;96632.28;;;7.45;83.29
72525;BME280;60547;48.502;8.996;2023-04-01T05:55:07;96624.41;;;7.56;82.86
72525;BME280;60547;48.502;8.996;2023-04-01T05:57:33;96612.91;;;7.45;82.19
72525;BME280;60547;48.502;8.996;2023-04-01T05:59:58;96615.25;;;7.47;82.40
72525;BME280;60547;48.502;8.996;2023-04-01T06:02:24;96605.72;;;7.48;82.04
72525;BME280;60547;48.502;8.996;2023-04-01T06:04:54;96613.91;;;7.51;80.77
72525;BME280;60547;48.502;8.996;2023-04-01T06:07:27;96615.97;;;7.60;80.43
72525;BME280;60547;48.502;8.996;2023-04-01T06:09:54;96623.25;;;7.66;81.31
72525;BME280;60547;48.502;8.996;2023-04-01T06:15:18;96610.75;;;7.62;81.37
72525;BME280;60547;48.502;8.996;2023-04-01T06:23:32;96608.19;;;7.67;81.89
72525;BME280;60547;48.502;8.996;2023-04-01T06:34:42;96618.13;;;7.77;81.13
72525;BME280;60547;48.502;8.996;2023-04-01T06:45:41;96606.19;;;7.90;81.07
72525;BME280;60547;48.502;8.996;2023-04-01T06:50:51;96604.59;;;8.01;80.52
72525;BME280;60547;48.502;8.996;2023-04-01T06:56:26;96601.50;;;7.99;80.70
72525;BME280;60547;48.502;8.996;2023-04-01T07:01:31;96596.34;;;8.10;80.32
72525;BME280;60547;48.502;8.996;2023-04-01T07:04:23;96597.75;;;8.15;80.03
72525;BME280;60547;48.502;8.996;2023-04-01T07:06:59;96591.84;;;8.04;79.26
72525;BME280;60547;48.502;8.996;2023-04-01T07:09:37;96599.13;;;8.10;79.57
72525;BME280;60547;48.502;8.996;2023-04-01T07:12:12;96598.16;;;8.04;80.20
72525;BME280;60547;48.502;8.996;2023-04-01T07:14:41;96599.69;;;8.05;80.34
72525;BME280;60547;48.502;8.996;2023-04-01T07:17:30;96604.53;;;8.14;79.38
72525;BME280;60547;48.502;8.996;2023-04-01T07:20:13;96604.47;;;8.05;80.44
72525;BME280;60547;48.502;8.996;2023-04-01T07:22:44;96599.44;;;8.13;81.18
72525;BME280;60547;48.502;8.996;2023-04-01T07:25:33;96602.59;;;8.24;80.75
72525;BME280;60547;48.502;8.996;2023-04-01T07:28:04;96608.13;;;8.24;81.54
72525;BME280;60547;48.502;8.996;2023-04-01T07:30:51;96614.88;;;8.23;81.48
72525;BME280;60547;48.502;8.996;2023-04-01T07:33:39;96599.81;;;8.24;81.47
72525;BME280;60547;48.502;8.996;2023-04-01T07:36:20;96602.44;;;8.27;80.11
72525;BME280;60547;48.502;8.996;2023-04-01T07:38:56;96615.53;;;8.27;81.69
72525;BME280;60547;48.502;8.996;2023-04-01T07:41:45;96615.41;;;8.30;81.03
72525;BME280;60547;48.502;8.996;2023-04-01T07:47:23;96616.84;;;8.35;80.73
72525;BME280;60547;48.502;8.996;2023-04-01T07:49:57;96614.38;;;8.37;81.12
72525;BME280;60547;48.502;8.996;2023-04-01T07:52:37;96622.88;;;8.43;81.65
72525;BME280;60547;48.502;8.996;2023-04-01T07:55:32;96625.19;;;8.44;81.63
72525;BME280;60547;48.502;8.996;2023-04-01T07:58:06;96624.88;;;8.42;80.86
72525;BME280;60547;48.502;8.996;2023-04-01T08:05:45;96637.84;;;8.45;80.52
72525;BME280;60547;48.502;8.996;2023-04-01T08:08:19;96632.34;;;8.54;81.09
72525;BME280;60547;48.502;8.996;2023-04-01T08:13:53;96636.78;;;8.52;80.12
72525;BME280;60547;48.502;8.996;2023-04-01T08:22:18;96632.16;;;8.49;82.40
72525;BME280;60547;48.502;8.996;2023-04-01T08:24:48;96628.28;;;8.46;82.64
72525;BME280;60547;48.502;8.996;2023-04-01T08:29:59;96631.38;;;8.48;80.90
72525;BME280;60547;48.502;8.996;2023-04-01T08:32:35;96631.25;;;8.52;81.72
72525;BME280;60547;48.502;8.996;2023-04-01T08:37:37;96644.19;;;8.55;83.20
72525;BME280;60547;48.502;8.996;2023-04-01T08:46:08;96642.19;;;8.55;82.86
72525;BME280;60547;48.502;8.996;2023-04-01T08:49:25;96641.28;;;8.58;82.34
72525;BME280;60547;48.502;8.996;2023-04-01T08:51:48;96643.47;;;8.63;83.31
72525;BME280;60547;48.502;8.996;2023-04-01T08:57:01;96648.13;;;8.66;82.02
72525;BME280;60547;48.502;8.996;2023-04-01T08:59:54;96639.94;;;8.63;83.04
72525;BME280;60547;48.502;8.996;2023-04-01T09:02:56;96639.03;;;8.66;82.62
72525;BME280;60547;48.502;8.996;2023-04-01T09:14:17;96647.06;;;8.73;83.99
72525;BME280;60547;48.502;8.996;2023-04-01T09:17:20;96655.91;;;8.90;82.75
72525;BME280;60547;48.502;8.996;2023-04-01T09:20:52;96665.69;;;9.03;82.47
72525;BME280;60547;48.502;8.996;2023-04-01T09:23:47;96647.91;;;8.92;82.53
72525;BME280;60547;48.502;8.996;2023-04-01T09:26:34;96661.94;;;8.88;84.67
72525;BME280;60547;48.502;8.996;2023-04-01T09:34:43;96657.44;;;8.82;85.05
72525;BME280;60547;48.502;8.996;2023-04-01T09:40:31;96663.81;;;9.00;86.18
72525;BME280;60547;48.502;8.996;2023-04-01T09:46:09;96677.34;;;9.29;84.59
72525;BME280;60547;48.502;8.996;2023-04-01T09:49:05;96677.91;;;9.15;84.33
72525;BME280;60547;48.502;8.996;2023-04-01T09:54:41;96688.91;;;9.28;85.83
72525;BME280;60547;48.502;8.996;2023-04-01T10:00:15;96696.06;;;9.07;86.04
72525;BME280;60547;48.502;8.996;2023-04-01T10:11:37;96696.31;;;8.91;87.01
72525;BME280;60547;48.502;8.996;2023-04-01T10:14:27;96701.84;;;8.91;87.47
72525;BME280;60547;48.502;8.996;2023-04-01T10:20:06;96691.66;;;8.88;85.26
72525;BME280;60547;48.502;8.996;2023-04-01T10:23:04;96700.59;;;8.83;83.89
72525;BME280;60547;48.502;8.996;2023-04-01T10:39:21;96695.91;;;9.01;85.85
72525;BME280;60547;48.502;8.996;2023-04-01T10:44:51;96697.16;;;9.10;85.83
72525;BME280;60547;48.502;8.996;2023-04-01T10:47:48;96693.66;;;9.18;86.60
72525;BME280;60547;48.502;8.996;2023-04-01T11:15:08;96701.19;;;9.76;81.38
72525;BME280;60547;48.502;8.996;2023-04-01T11:29:39;96717.50;;;9.47;80.11
72525;BME280;60547;48.502;8.996;2023-04-01T11:32:24;96714.44;;;9.63;79.59
72525;BME280;60547;48.502;8.996;2023-04-01T11:40:26;96731.78;;;9.85;80.09
72525;BME280;60547;48.502;8.996;2023-04-01T11:43:16;96723.59;;;9.82;78.79
72525;BME280;60547;48.502;8.996;2023-04-01T11:46:03;96715.38;;;9.69;79.89
72525;BME280;60547;48.502;8.996;2023-04-01T11:53:56;96726.81;;;9.71;79.76
72525;BME280;60547;48.502;8.996;2023-04-01T12:05:23;96741.31;;;9.75;82.13
72525;BME280;60547;48.502;8.996;2023-04-01T12:08:14;96741.19;;;9.79;82.70
72525;BME280;60547;48.502;8.996;2023-04-01T12:13:42;96745.63;;;9.67;80.62
72525;BME280;60547;48.502;8.996;2023-04-01T12:16:34;96745.78;;;9.63;81.83
72525;BME280;60547;48.502;8.996;2023-04-01T12:29:54;96757.50;;;9.67;80.11
72525;BME280;60547;48.502;8.996;2023-04-01T12:35:27;96759.50;;;9.58;78.84
72525;BME280;60547;48.502;8.996;2023-04-01T12:41:21;96767.16;;;10.03;78.18
72525;BME280;60547;48.502;8.996;2023-04-01T12:47:00;96748.53;;;10.22;76.56
72525;BME280;60547;48.502;8.996;2023-04-01T12:58:07;96753.72;;;10.01;76.95
72525;BME280;60547;48.502;8.996;2023-04-01T13:00:54;96760.53;;;10.10;78.03
72525;BME280;60547;48.502;8.996;2023-04-01T13:08:52;96747.91;;;10.27;76.91
72525;BME280;60547;48.502;8.996;2023-04-01T13:11:46;96754.69;;;10.62;76.33
72525;BME280;60547;48.502;8.996;2023-04-01T13:17:24;96733.88;;;11.09;72.35
72525;BME280;60547;48.502;8.996;2023-04-01T13:23:00;96756.16;;;11.09;71.65
72525;BME280;60547;48.502;8.996;2023-04-01T13:26:03;96755.94;;;10.61;71.55
72525;BME280;60547;48.502;8.996;2023-04-01T13:28:37;96763.00;;;10.81;71.76
72525;BME280;60547;48.502;8.996;2023-04-01T13:36:45;96750.66;;;10.73;72.98
72525;BME280;60547;48.502;8.996;2023-04-01T13:39:47;96741.41;;;10.66;72.18
72525;BME280;60547;48.502;8.996;2023-04-01T13:42:26;96757.00;;;10.73;71.74
72525;BME280;60547;48.502;8.996;2023-04-01T13:45:12;96758.06;;;10.76;71.32
72525;BME280;60547;48.502;8.996;2023-04-01T13:47:52;96762.41;;;10.77;71.55
72525;BME280;60547;48.502;8.996;2023-04-01T14:00:58;96758.09;;;10.48;71.57
72525;BME280;60547;48.502;8.996;2023-04-01T14:06:49;96755.94;;;10.52;71.12
72525;BME280;60547;48.502;8.996;2023-04-01T14:12:53;96783.75;;;10.61;71.99
72525;BME280;60547;48.502;8.996;2023-04-01T14:18:23;96769.84;;;10.34;73.51
72525;BME280;60547;48.502;8.996;2023-04-01T14:24:07;96773.41;;;10.44;74.07
72525;BME280;60547;48.502;8.996;2023-04-01T14:29:31;96777.56;;;10.57;72.81
72525;BME280;60547;48.502;8.996;2023-04-01T14:32:38;96774.78;;;10.48;72.40
72525;BME280;60547;48.502;8.996;2023-04-01T14:35:35;96779.72;;;10.44;74.04
72525;BME280;60547;48.502;8.996;2023-04-01T14:38:04;96784.38;;;10.47;74.52
72525;BME280;60547;48.502;8.996;2023-04-01T14:43:37;96786.38;;;10.56;72.66
72525;BME280;60547;48.502;8.996;2023-04-01T14:49:34;96778.97;;;10.44;72.89
72525;BME280;60547;48.502;8.996;2023-04-01T14:52:24;96777.56;;;10.39;74.26
72525;BME280;60547;48.502;8.996;2023-04-01T14:54:52;96776.03;;;10.38;74.82
72525;BME280;60547;48.502;8.996;2023-04-01T14:57:28;96774.16;;;10.44;74.95
72525;BME280;60547;48.502;8.996;2023-04-01T15:08:03;96783.13;;;10.39;74.80
72525;BME280;60547;48.502;8.996;2023-04-01T15:13:13;96791.09;;;10.10;74.41
72525;BME280;60547;48.502;8.996;2023-04-01T15:16:07;96796.03;;;10.06;74.80
72525;BME280;60547;48.502;8.996;2023-04-01T15:41:14;96822.94;;;10.18;73.55
72525;BME280;60547;48.502;8.996;2023-04-01T15:46:40;96816.41;;;10.02;74.28
72525;BME280;60547;48.502;8.996;2023-04-01T15:55:26;96817.34;;;9.99;73.42
72525;BME280;60547;48.502;8.996;2023-04-01T16:00:54;96827.53;;;10.02;73.99
72525;BME280;60547;48.502;8.996;2023-04-01T16:06:24;96830.31;;;10.02;72.36
72525;BME280;60547;48.502;8.996;2023-04-01T16:17:59;96821.06;;;10.06;73.41
72525;BME280;60547;48.502;8.996;2023-04-01T16:23:22;96819.97;;;10.03;72.89
72525;BME280;60547;48.502;8.996;2023-04-01T16:26:08;96827.84;;;10.04;72.50
72525;BME280;60547;48.502;8.996;2023-04-01T16:28:57;96831.69;;;9.98;72.41
72525;BME280;60547;48.502;8.996;2023-04-01T16:31:37;96824.44;;;10.00;73.42
72525;BME280;60547;48.502;8.996;2023-04-01T16:34:17;96815.78;;;9.98;73.30
72525;BME280;60547;48.502;8.996;2023-04-01T16:42:48;96819.16;;;9.93;73.77
72525;BME280;60547;48.502;8.996;2023-04-01T16:45:35;96819.94;;;9.94;73.32
72525;BME280;60547;48.502;8.996;2023-04-01T16:51:00;96829.69;;;9.98;73.93
72525;BME280;60547;48.502;8.996;2023-04-01T16:53:41;96828.13;;;9.97;73.83
72525;BME280;60547;48.502;8.996;2023-04-01T16:56:12;96836.16;;;9.95;74.17
72525;BME280;60547;48.502;8.996;2023-04-01T17:01:26;96812.03;;;9.83;74.61
72525;BME280;60547;48.502;8.996;2023-04-01T17:03:59;96825.00;;;9.86;74.63
72525;BME280;60547;48.502;8.996;2023-04-01T17:15:26;96822.81;;;9.72;77.08
72525;BME280;60547;48.502;8.996;2023-04-01T17:20:31;96819.56;;;9.74;77.13
72525;BME280;60547;48.502;8.996;2023-04-01T17:23:21;96823.13;;;9.74;76.69
72525;BME280;60547;48.502;8.996;2023-04-01T17:28:52;96827.09;;;9.64;75.17
72525;BME280;60547;48.502;8.996;2023-04-01T17:34:09;96841.56;;;9.59;75.03
72525;BME280;60547;48.502;8.996;2023-04-01T17:42:15;96858.72;;;9.66;75.05
72525;BME280;60547;48.502;8.996;2023-04-01T17:45:03;96857.66;;;9.64;75.27
72525;BME280;60547;48.502;8.996;2023-04-01T17:50:50;96861.78;;;9.59;74.00
72525;BME280;60547;48.502;8.996;2023-04-01T17:53:45;96863.59;;;9.53;74.03
72525;BME280;60547;48.502;8.996;2023-04-01T17:59:26;96878.28;;;9.54;74.33
72525;BME280;60547;48.502;8.996;2023-04-01T18:02:02;96867.88;;;9.45;75.12
72525;BME280;60547;48.502;8.996;2023-04-01T18:07:22;96866.84;;;9.52;74.40
72525;BME280;60547;48.502;8.996;2023-04-01T18:10:04;96877.34;;;9.57;74.44
72525;BME280;60547;48.502;8.996;2023-04-01T18:15:55;96887.06;;;9.52;74.51
72525;BME280;60547;48.502;8.996;2023-04-01T18:21:48;96889.97;;;9.49;74.82
72525;BME280;60547;48.502;8.996;2023-04-01T18:24:43;96902.31;;;9.48;75.03
72525;BME280;60547;48.502;8.996;2023-04-01T18:27:36;96906.63;;;9.49;75.52
72525;BME280;60547;48.502;8.996;2023-04-01T18:30:23;96921.09;;;9.44;77.07
72525;BME280;60547;48.502;8.996;2023-04-01T18:33:02;96933.75;;;9.45;77.39
72525;BME280;60547;48.502;8.996;2023-04-01T18:38:13;96941.31;;;9.22;77.83
72525;BME280;60547;48.502;8.996;2023-04-01T18:43:33;96955.03;;;8.69;79.38
72525;BME280;60547;48.502;8.996;2023-04-01T18:51:20;96956.28;;;8.18;82.45
72525;BME280;60547;48.502;8.996;2023-04-01T18:53:54;96961.16;;;8.14;82.69
72525;BME280;60547;48.502;8.996;2023-04-01T18:56:24;96963.50;;;8.02;82.69
72525;BME280;60547;48.502;8.996;2023-04-01T19:02:28;96973.47;;;8.00;83.35
72525;BME280;60547;48.502;8.996;2023-04-01T19:05:09;96951.41;;;7.96;83.42
72525;BME280;60547;48.502;8.996;2023-04-01T19:12:59;96970.38;;;8.10;83.88
72525;BME280;60547;48.502;8.996;2023-04-01T19:15:44;96974.78;;;8.08;83.82
72525;BME280;60547;48.502;8.996;2023-04-01T19:18:40;96978.69;;;8.10;83.46
72525;BME280;60547;48.502;8.996;2023-04-01T19:21:35;96982.66;;;8.09;83.75
72525;BME280;60547;48.502;8.996;2023-04-01T19:32:12;96976.13;;;7.91;85.29
72525;BME280;60547;48.502;8.996;2023-04-01T19:40:33;96973.53;;;7.71;85.77
72525;BME280;60547;48.502;8.996;2023-04-01T19:59:50;96973.78;;;7.35;87.14
72525;BME280;60547;48.502;8.996;2023-04-01T20:05:24;96979.84;;;7.30;87.65
72525;BME280;60547;48.502;8.996;2023-04-01T20:07:52;96983.41;;;7.30;87.85
72525;BME280;60547;48.502;8.996;2023-04-01T20:10:28;96987.91;;;7.24;87.42
72525;BME280;60547;48.502;8.996;2023-04-01T20:13:32;96984.03;;;7.22;88.06
72525;BME280;60547;48.502;8.996;2023-04-01T20:16:04;96991.22;;;7.19;88.21
72525;BME280;60547;48.502;8.996;2023-04-01T20:18:56;96997.09;;;7.21;88.72
72525;BME280;60547;48.502;8.996;2023-04-01T20:24:04;97006.84;;;7.26;88.44
72525;BME280;60547;48.502;8.996;2023-04-01T20:26:36;97001.84;;;7.21;88.26
72525;BME280;60547;48.502;8.996;2023-04-01T20:32:06;97009.59;;;7.26;88.59
72525;BME280;60547;48.502;8.996;2023-04-01T20:40:20;97021.44;;;7.26;87.59
72525;BME280;60547;48.502;8.996;2023-04-01T20:45:45;97031.50;;;7.20;88.00
72525;BME280;60547;48.502;8.996;2023-04-01T20:51:15;97020.28;;;7.11;87.62
72525;BME280;60547;48.502;8.996;2023-04-01T20:54:00;97028.03;;;7.16;86.74
72525;BME280;60547;48.502;8.996;2023-04-01T20:56:32;97035.13;;;7.17;87.53
72525;BME280;60547;48.502;8.996;2023-04-01T21:07:41;97050.53;;;7.47;85.52
72525;BME280;60547;48.502;8.996;2023-04-01T21:10:29;97063.25;;;7.44;85.19
72525;BME280;60547;48.502;8.996;2023-04-01T21:24:29;97079.94;;;7.57;85.86
72525;BME280;60547;48.502;8.996;2023-04-01T21:35:36;97083.66;;;7.51;86.52
72525;BME280;60547;48.502;8.996;2023-04-01T21:44:02;97093.13;;;7.66;86.59
72525;BME280;60547;48.502;8.996;2023-04-01T21:47:00;97093.81;;;7.70;86.19
72525;BME280;60547;48.502;8.996;2023-04-01T21:52:10;97090.91;;;7.61;85.70
72525;BME280;60547;48.502;8.996;2023-04-01T22:05:30;97103.38;;;7.53;86.14